createdAt,value
2023-03-22T00:00:39.988Z,989.77
2023-03-22T00:01:39.675Z,989.81
2023-03-22T00:02:39.694Z,989.77
2023-03-22T00:03:39.659Z,989.76
2023-03-22T00:04:39.661Z,989.83
2023-03-22T00:05:39.602Z,989.82
2023-03-22T00:06:39.622Z,989.81
2023-03-22T00:07:39.592Z,989.79
2023-03-22T00:08:39.570Z,989.79
2023-03-22T00:09:39.612Z,989.80
2023-03-22T00:10:39.918Z,989.83
2023-03-22T00:11:39.547Z,989.87
2023-03-22T00:12:39.538Z,989.84
2023-03-22T00:13:39.529Z,989.79
2023-03-22T00:14:39.529Z,989.87
2023-03-22T00:15:39.589Z,989.75
2023-03-22T00:16:39.522Z,989.78
2023-03-22T00:17:39.483Z,989.73
2023-03-22T00:18:39.475Z,989.71
2023-03-22T00:19:39.488Z,989.73
2023-03-22T00:20:39.741Z,989.70
2023-03-22T00:21:39.450Z,989.70
2023-03-22T00:22:39.448Z,989.73
2023-03-22T00:23:39.431Z,989.68
2023-03-22T00:24:39.445Z,989.67
2023-03-22T00:25:39.407Z,989.70
2023-03-22T00:26:39.418Z,989.68
2023-03-22T00:27:39.407Z,989.68
2023-03-22T00:28:39.391Z,989.66
2023-03-22T00:29:39.421Z,989.69
2023-03-22T00:30:39.693Z,989.64
2023-03-22T00:31:39.419Z,989.71
2023-03-22T00:32:39.377Z,989.69
2023-03-22T00:33:39.352Z,989.65
2023-03-22T00:34:39.351Z,989.61
2023-03-22T00:35:39.372Z,989.58
2023-03-22T00:36:39.305Z,989.62
2023-03-22T00:37:39.311Z,989.57
2023-03-22T00:38:45.549Z,989.59
2023-03-22T00:39:41.310Z,989.60
2023-03-22T00:40:40.441Z,989.60
2023-03-22T00:41:39.262Z,989.56
2023-03-22T00:42:39.249Z,989.58
2023-03-22T00:43:39.245Z,989.62
2023-03-22T00:44:39.266Z,989.59
2023-03-22T00:45:39.219Z,989.59
2023-03-22T00:46:39.222Z,989.55
2023-03-22T00:47:39.202Z,989.58
2023-03-22T00:48:39.183Z,989.57
2023-03-22T00:49:39.202Z,989.53
2023-03-22T00:50:39.395Z,989.55
2023-03-22T00:51:39.147Z,989.54
2023-03-22T00:52:39.145Z,989.56
2023-03-22T00:53:42.424Z,989.55
2023-03-22T00:54:39.129Z,989.51
2023-03-22T00:55:39.138Z,989.61
2023-03-22T00:56:39.120Z,989.57
2023-03-22T00:57:39.128Z,989.53
2023-03-22T00:58:39.101Z,989.50
2023-03-22T00:59:39.082Z,989.57
2023-03-22T01:00:39.441Z,989.56
2023-03-22T01:01:39.063Z,989.53
2023-03-22T01:02:39.051Z,989.55
2023-03-22T01:03:39.068Z,989.57
2023-03-22T01:04:39.053Z,989.59
2023-03-22T01:05:39.061Z,989.55
2023-03-22T01:06:39.007Z,989.56
2023-03-22T01:07:39.007Z,989.51
2023-03-22T01:08:39.412Z,989.58
2023-03-22T01:09:38.985Z,989.48
2023-03-22T01:10:39.201Z,989.53
2023-03-22T01:11:38.948Z,989.50
2023-03-22T01:12:38.944Z,989.54
2023-03-22T01:13:38.940Z,989.49
2023-03-22T01:14:38.929Z,989.47
2023-03-22T01:15:38.960Z,989.44
2023-03-22T01:16:38.961Z,989.43
2023-03-22T01:17:38.901Z,989.46
2023-03-22T01:18:38.892Z,989.43
2023-03-22T01:19:38.882Z,989.44
2023-03-22T01:20:39.293Z,989.44
2023-03-22T01:21:38.871Z,989.35
2023-03-22T01:22:38.853Z,989.35
2023-03-22T01:23:38.849Z,989.36
2023-03-22T01:24:38.843Z,989.28
2023-03-22T01:25:38.844Z,989.31
2023-03-22T01:26:38.809Z,989.31
2023-03-22T01:27:38.806Z,989.36
2023-03-22T01:28:38.785Z,989.32
2023-03-22T01:29:38.786Z,989.27
2023-03-22T01:30:39.078Z,989.28
2023-03-22T01:31:38.768Z,989.23
2023-03-22T01:32:38.763Z,989.26
2023-03-22T01:33:38.778Z,989.23
2023-03-22T01:34:38.729Z,989.27
2023-03-22T01:35:38.769Z,989.23
2023-03-22T01:36:38.712Z,989.26
2023-03-22T01:37:38.706Z,989.26
2023-03-22T01:38:38.715Z,989.31
2023-03-22T01:39:38.724Z,989.22
2023-03-22T01:40:39.023Z,989.32
2023-03-22T01:41:38.672Z,989.22
2023-03-22T01:42:38.674Z,989.21
2023-03-22T01:43:38.658Z,989.22
2023-03-22T01:44:38.639Z,989.23
2023-03-22T01:45:38.680Z,989.22
2023-03-22T01:46:38.716Z,989.19
2023-03-22T01:47:38.610Z,989.20
2023-03-22T01:48:38.721Z,989.20
2023-03-22T01:49:38.593Z,989.21
2023-03-22T01:50:38.882Z,989.22
2023-03-22T01:51:38.574Z,989.21
2023-03-22T01:52:38.557Z,989.23
2023-03-22T01:53:38.556Z,989.22
2023-03-22T01:54:38.550Z,989.19
2023-03-22T01:55:38.560Z,989.15
2023-03-22T01:56:38.525Z,989.15
2023-03-22T01:57:38.517Z,989.16
2023-03-22T01:58:38.503Z,989.17
2023-03-22T01:59:38.500Z,989.09
2023-03-22T02:00:38.825Z,989.12
2023-03-22T02:01:38.497Z,989.06
2023-03-22T02:02:39.530Z,989.09
2023-03-22T02:03:38.452Z,989.14
2023-03-22T02:04:38.493Z,989.10
2023-03-22T02:05:38.469Z,989.03
2023-03-22T02:06:38.466Z,989.08
2023-03-22T02:07:38.420Z,989.04
2023-03-22T02:08:38.406Z,989.09
2023-03-22T02:09:38.397Z,989.01
2023-03-22T02:10:38.575Z,989.02
2023-03-22T02:11:38.374Z,989.03
2023-03-22T02:12:38.365Z,989.02
2023-03-22T02:13:38.364Z,989.02
2023-03-22T02:14:38.353Z,989.02
2023-03-22T02:15:39.428Z,989.01
2023-03-22T02:16:38.392Z,988.99
2023-03-22T02:17:38.326Z,989.04
2023-03-22T02:18:38.312Z,988.97
2023-03-22T02:19:38.303Z,988.97
2023-03-22T02:20:38.699Z,988.95
2023-03-22T02:21:38.275Z,989.00
2023-03-22T02:22:38.277Z,988.98
2023-03-22T02:23:38.260Z,989.06
2023-03-22T02:24:38.278Z,989.04
2023-03-22T02:25:38.295Z,989.02
2023-03-22T02:26:38.234Z,988.94
2023-03-22T02:27:38.242Z,989.04
2023-03-22T02:28:38.234Z,989.02
2023-03-22T02:29:38.207Z,989.00
2023-03-22T02:30:38.554Z,989.02
2023-03-22T02:31:38.255Z,989.06
2023-03-22T02:32:38.190Z,989.02
2023-03-22T02:33:40.449Z,989.05
2023-03-22T02:34:38.148Z,989.01
2023-03-22T02:35:38.184Z,989.01
2023-03-22T02:36:38.131Z,989.01
2023-03-22T02:37:38.138Z,989.03
2023-03-22T02:38:38.113Z,988.99
2023-03-22T02:39:38.105Z,988.99
2023-03-22T02:40:38.512Z,988.97
2023-03-22T02:41:38.094Z,988.95
2023-03-22T02:42:38.084Z,988.95
2023-03-22T02:43:38.078Z,988.94
2023-03-22T02:44:38.050Z,988.94
2023-03-22T02:45:38.071Z,988.96
2023-03-22T02:46:38.088Z,988.96
2023-03-22T02:47:38.027Z,988.99
2023-03-22T02:48:38.009Z,989.00
2023-03-22T02:49:38.013Z,988.99
2023-03-22T02:50:38.435Z,988.96
2023-03-22T02:51:38.010Z,988.94
2023-03-22T02:52:37.972Z,988.99
2023-03-22T02:53:37.958Z,988.92
2023-03-22T02:54:37.948Z,988.91
2023-03-22T02:55:37.949Z,988.93
2023-03-22T02:56:37.953Z,988.88
2023-03-22T02:57:37.930Z,988.89
2023-03-22T02:58:37.915Z,988.88
2023-03-22T02:59:37.905Z,988.88
2023-03-22T03:00:38.408Z,988.84
2023-03-22T03:01:37.987Z,988.90
2023-03-22T03:02:37.872Z,988.84
2023-03-22T03:03:37.870Z,988.86
2023-03-22T03:04:37.860Z,988.87
2023-03-22T03:05:37.848Z,988.90
2023-03-22T03:06:37.853Z,988.91
2023-03-22T03:07:37.830Z,988.93
2023-03-22T03:08:37.813Z,988.90
2023-03-22T03:09:37.807Z,988.92
2023-03-22T03:10:38.191Z,988.91
2023-03-22T03:11:37.811Z,988.89
2023-03-22T03:12:37.781Z,988.90
2023-03-22T03:13:37.809Z,988.88
2023-03-22T03:14:37.759Z,988.90
2023-03-22T03:15:37.754Z,988.87
2023-03-22T03:16:37.822Z,988.87
2023-03-22T03:17:37.729Z,988.93
2023-03-22T03:18:37.721Z,988.88
2023-03-22T03:19:37.710Z,988.79
2023-03-22T03:20:38.304Z,988.84
2023-03-22T03:21:37.690Z,988.76
2023-03-22T03:22:37.680Z,988.76
2023-03-22T03:23:37.670Z,988.78
2023-03-22T03:24:37.670Z,988.70
2023-03-22T03:25:37.702Z,988.70
2023-03-22T03:26:37.649Z,988.68
2023-03-22T03:27:37.638Z,988.64
2023-03-22T03:28:37.656Z,988.66
2023-03-22T03:29:37.619Z,988.66
2023-03-22T03:30:37.949Z,988.68
2023-03-22T03:31:37.659Z,988.64
2023-03-22T03:32:37.584Z,988.62
2023-03-22T03:33:37.587Z,988.56
2023-03-22T03:34:37.562Z,988.61
2023-03-22T03:35:37.636Z,988.61
2023-03-22T03:36:37.541Z,988.63
2023-03-22T03:37:37.546Z,988.54
2023-03-22T03:38:37.517Z,988.53
2023-03-22T03:39:37.514Z,988.52
2023-03-22T03:40:37.988Z,988.53
2023-03-22T03:41:37.495Z,988.52
2023-03-22T03:42:37.497Z,988.57
2023-03-22T03:43:37.497Z,988.52
2023-03-22T03:44:37.493Z,988.41
2023-03-22T03:45:37.535Z,988.51
2023-03-22T03:46:37.437Z,988.46
2023-03-22T03:47:37.432Z,988.47
2023-03-22T03:48:37.422Z,988.42
2023-03-22T03:49:37.416Z,988.50
2023-03-22T03:50:37.691Z,988.50
2023-03-22T03:51:37.396Z,988.44
2023-03-22T03:52:37.378Z,988.51
2023-03-22T03:53:37.370Z,988.47
2023-03-22T03:54:37.368Z,988.46
2023-03-22T03:55:37.371Z,988.44
2023-03-22T03:56:37.350Z,988.47
2023-03-22T03:57:37.335Z,988.48
2023-03-22T03:58:37.343Z,988.50
2023-03-22T03:59:37.332Z,988.48
2023-03-22T04:00:37.464Z,988.43
2023-03-22T04:01:37.301Z,988.49
2023-03-22T04:02:37.376Z,988.42
2023-03-22T04:03:37.296Z,988.44
2023-03-22T04:05:09.172Z,988.39
2023-03-22T04:05:37.263Z,988.43
2023-03-22T04:06:37.245Z,988.41
2023-03-22T04:07:37.266Z,988.47
2023-03-22T04:08:37.228Z,988.47
2023-03-22T04:09:37.247Z,988.45
2023-03-22T04:10:37.455Z,988.43
2023-03-22T04:11:37.201Z,988.42
2023-03-22T04:12:37.212Z,988.40
2023-03-22T04:13:37.179Z,988.41
2023-03-22T04:14:37.169Z,988.42
2023-03-22T04:15:37.157Z,988.38
2023-03-22T04:16:37.206Z,988.38
2023-03-22T04:17:37.167Z,988.43
2023-03-22T04:18:37.139Z,988.35
2023-03-22T04:19:37.123Z,988.42
2023-03-22T04:20:37.453Z,988.43
2023-03-22T04:21:37.098Z,988.44
2023-03-22T04:22:37.085Z,988.41
2023-03-22T04:23:37.084Z,988.43
2023-03-22T04:24:37.075Z,988.46
2023-03-22T04:25:37.085Z,988.38
2023-03-22T04:26:37.090Z,988.44
2023-03-22T04:27:37.037Z,988.41
2023-03-22T04:28:37.035Z,988.40
2023-03-22T04:29:37.009Z,988.39
2023-03-22T04:30:37.147Z,988.39
2023-03-22T04:31:36.992Z,988.45
2023-03-22T04:32:36.983Z,988.34
2023-03-22T04:33:36.974Z,988.30
2023-03-22T04:34:36.960Z,988.32
2023-03-22T04:35:36.988Z,988.33
2023-03-22T04:36:36.955Z,988.30
2023-03-22T04:37:36.947Z,988.24
2023-03-22T04:38:36.931Z,988.31
2023-03-22T04:39:36.907Z,988.33
2023-03-22T04:40:38.527Z,988.29
2023-03-22T04:41:36.921Z,988.36
2023-03-22T04:42:36.882Z,988.35
2023-03-22T04:43:36.882Z,988.33
2023-03-22T04:44:36.870Z,988.33
2023-03-22T04:45:36.841Z,988.34
2023-03-22T04:46:37.892Z,988.41
2023-03-22T04:47:36.827Z,988.43
2023-03-22T04:48:36.834Z,988.33
2023-03-22T04:49:36.816Z,988.32
2023-03-22T04:50:36.943Z,988.32
2023-03-22T04:51:36.835Z,988.36
2023-03-22T04:52:36.784Z,988.30
2023-03-22T04:53:36.772Z,988.37
2023-03-22T04:54:36.757Z,988.35
2023-03-22T04:55:36.755Z,988.34
2023-03-22T04:56:36.789Z,988.40
2023-03-22T04:57:37.715Z,988.38
2023-03-22T04:58:36.745Z,988.37
2023-03-22T04:59:36.726Z,988.38
2023-03-22T05:00:36.721Z,988.34
2023-03-22T05:01:36.719Z,988.40
2023-03-22T05:02:36.745Z,988.37
2023-03-22T05:03:36.703Z,988.35
2023-03-22T05:04:36.658Z,988.39
2023-03-22T05:05:36.651Z,988.34
2023-03-22T05:06:36.648Z,988.33
2023-03-22T05:07:36.631Z,988.28
2023-03-22T05:08:36.676Z,988.33
2023-03-22T05:09:36.612Z,988.40
2023-03-22T05:10:36.594Z,988.36
2023-03-22T05:11:36.636Z,988.30
2023-03-22T05:12:36.602Z,988.31
2023-03-22T05:13:36.580Z,988.28
2023-03-22T05:14:36.649Z,988.33
2023-03-22T05:15:36.550Z,988.37
2023-03-22T05:16:37.557Z,988.38
2023-03-22T05:17:36.538Z,988.37
2023-03-22T05:18:36.519Z,988.34
2023-03-22T05:19:36.518Z,988.34
2023-03-22T05:20:36.514Z,988.38
2023-03-22T05:21:36.625Z,988.39
2023-03-22T05:22:36.480Z,988.30
2023-03-22T05:23:36.496Z,988.31
2023-03-22T05:24:36.455Z,988.34
2023-03-22T05:25:36.458Z,988.29
2023-03-22T05:26:36.482Z,988.29
2023-03-22T05:27:36.429Z,988.31
2023-03-22T05:28:36.416Z,988.31
2023-03-22T05:29:36.408Z,988.35
2023-03-22T05:30:36.431Z,988.39
2023-03-22T05:31:36.436Z,988.33
2023-03-22T05:32:36.382Z,988.38
2023-03-22T05:33:36.366Z,988.34
2023-03-22T05:34:36.350Z,988.34
2023-03-22T05:35:36.406Z,988.30
2023-03-22T05:36:36.403Z,988.33
2023-03-22T05:37:36.330Z,988.30
2023-03-22T05:38:36.333Z,988.34
2023-03-22T05:39:36.311Z,988.38
2023-03-22T05:40:36.307Z,988.37
2023-03-22T05:41:36.969Z,988.41
2023-03-22T05:42:37.279Z,988.38
2023-03-22T05:43:36.276Z,988.39
2023-03-22T05:44:36.261Z,988.34
2023-03-22T05:45:36.246Z,988.35
2023-03-22T05:46:36.293Z,988.32
2023-03-22T05:47:36.225Z,988.24
2023-03-22T05:48:36.215Z,988.31
2023-03-22T05:49:36.210Z,988.28
2023-03-22T05:50:36.219Z,988.31
2023-03-22T05:51:36.231Z,988.25
2023-03-22T05:52:36.181Z,988.25
2023-03-22T05:53:36.162Z,988.22
2023-03-22T05:54:36.151Z,988.21
2023-03-22T05:55:36.149Z,988.23
2023-03-22T05:56:36.200Z,988.22
2023-03-22T05:57:36.130Z,988.20
2023-03-22T05:58:36.110Z,988.23
2023-03-22T05:59:36.107Z,988.21
2023-03-22T06:00:36.092Z,988.22
2023-03-22T06:01:36.119Z,988.27
2023-03-22T06:02:36.079Z,988.28
2023-03-22T06:03:36.148Z,988.25
2023-03-22T06:04:36.052Z,988.26
2023-03-22T06:05:36.051Z,988.25
2023-03-22T06:06:36.093Z,988.27
2023-03-22T06:07:36.018Z,988.29
2023-03-22T06:08:36.018Z,988.26
2023-03-22T06:09:35.999Z,988.26
2023-03-22T06:10:36.014Z,988.25
2023-03-22T06:11:35.996Z,988.29
2023-03-22T06:12:36.945Z,988.28
2023-03-22T06:13:35.960Z,988.25
2023-03-22T06:14:35.965Z,988.21
2023-03-22T06:15:35.941Z,988.19
2023-03-22T06:16:36.038Z,988.22
2023-03-22T06:17:35.915Z,988.14
2023-03-22T06:18:35.917Z,988.16
2023-03-22T06:19:35.902Z,988.18
2023-03-22T06:20:35.948Z,988.18
2023-03-22T06:21:35.952Z,988.14
2023-03-22T06:22:35.901Z,988.14
2023-03-22T06:23:35.867Z,988.15
2023-03-22T06:24:35.873Z,988.15
2023-03-22T06:25:35.892Z,988.08
2023-03-22T06:26:35.907Z,988.07
2023-03-22T06:27:35.830Z,988.06
2023-03-22T06:28:35.851Z,988.07
2023-03-22T06:29:35.807Z,988.12
2023-03-22T06:30:35.817Z,988.06
2023-03-22T06:31:35.852Z,988.08
2023-03-22T06:32:35.789Z,988.10
2023-03-22T06:33:35.749Z,988.08
2023-03-22T06:34:35.782Z,988.05
2023-03-22T06:35:35.794Z,988.08
2023-03-22T06:36:35.754Z,988.12
2023-03-22T06:37:35.707Z,988.08
2023-03-22T06:38:35.714Z,988.12
2023-03-22T06:39:35.692Z,988.08
2023-03-22T06:40:35.713Z,988.05
2023-03-22T06:41:36.744Z,988.10
2023-03-22T06:42:35.675Z,988.07
2023-03-22T06:43:35.650Z,988.09
2023-03-22T06:44:35.647Z,988.09
2023-03-22T06:45:35.647Z,988.09
2023-03-22T06:46:35.676Z,988.11
2023-03-22T06:47:35.620Z,988.14
2023-03-22T06:48:35.603Z,988.12
2023-03-22T06:49:35.625Z,988.07
2023-03-22T06:50:35.581Z,988.08
2023-03-22T06:51:35.634Z,988.06
2023-03-22T06:52:35.569Z,988.10
2023-03-22T06:53:35.550Z,988.07
2023-03-22T06:54:35.549Z,988.13
2023-03-22T06:55:35.548Z,988.06
2023-03-22T06:56:35.618Z,988.14
2023-03-22T06:57:35.520Z,988.17
2023-03-22T06:58:35.507Z,988.16
2023-03-22T06:59:35.496Z,988.11
2023-03-22T07:00:35.489Z,988.17
2023-03-22T07:01:35.495Z,988.08
2023-03-22T07:02:35.501Z,988.04
2023-03-22T07:03:35.464Z,988.07
2023-03-22T07:04:35.461Z,988.08
2023-03-22T07:05:35.619Z,988.08
2023-03-22T07:06:35.437Z,988.11
2023-03-22T07:07:35.463Z,988.07
2023-03-22T07:08:35.449Z,987.96
2023-03-22T07:09:35.416Z,988.02
2023-03-22T07:10:35.412Z,987.93
2023-03-22T07:11:35.406Z,988.03
2023-03-22T07:12:35.415Z,988.07
2023-03-22T07:13:35.386Z,988.11
2023-03-22T07:14:35.364Z,988.11
2023-03-22T07:15:35.408Z,988.04
2023-03-22T07:16:35.335Z,988.07
2023-03-22T07:17:35.356Z,988.00
2023-03-22T07:18:35.310Z,987.96
2023-03-22T07:19:35.311Z,987.94
2023-03-22T07:20:35.303Z,987.95
2023-03-22T07:21:35.295Z,987.92
2023-03-22T07:22:35.300Z,987.91
2023-03-22T07:23:35.280Z,987.81
2023-03-22T07:24:37.192Z,987.80
2023-03-22T07:25:36.246Z,987.68
2023-03-22T07:26:35.239Z,987.73
2023-03-22T07:27:35.255Z,987.71
2023-03-22T07:28:35.234Z,987.74
2023-03-22T07:29:35.206Z,987.82
2023-03-22T07:30:35.225Z,987.80
2023-03-22T07:31:35.183Z,987.77
2023-03-22T07:32:35.248Z,987.69
2023-03-22T07:33:35.214Z,987.72
2023-03-22T07:34:35.157Z,987.77
2023-03-22T07:35:35.242Z,987.73
2023-03-22T07:36:35.144Z,987.66
2023-03-22T07:37:35.144Z,987.62
2023-03-22T07:38:35.129Z,987.62
2023-03-22T07:39:35.121Z,987.67
2023-03-22T07:40:35.125Z,987.62
2023-03-22T07:41:35.091Z,987.66
2023-03-22T07:42:35.138Z,987.64
2023-03-22T07:43:47.304Z,987.69
2023-03-22T07:44:37.065Z,987.69
2023-03-22T07:45:35.078Z,987.69
2023-03-22T07:46:35.076Z,987.65
2023-03-22T07:47:41.042Z,987.61
2023-03-22T07:48:37.036Z,987.64
2023-03-22T07:49:35.015Z,987.59
2023-03-22T07:50:35.055Z,987.53
2023-03-22T07:51:34.998Z,987.65
2023-03-22T07:52:35.045Z,987.63
2023-03-22T07:53:34.988Z,987.71
2023-03-22T07:54:34.985Z,987.62
2023-03-22T07:55:34.972Z,987.57
2023-03-22T07:56:34.957Z,987.59
2023-03-22T07:57:34.952Z,987.53
2023-03-22T07:58:34.932Z,987.63
2023-03-22T07:59:34.919Z,987.61
2023-03-22T08:00:34.915Z,987.66
2023-03-22T08:01:34.995Z,987.71
2023-03-22T08:02:34.927Z,987.63
2023-03-22T08:03:34.900Z,987.64
2023-03-22T08:04:34.886Z,987.58
2023-03-22T08:05:34.864Z,987.63
2023-03-22T08:06:34.841Z,987.66
2023-03-22T08:07:35.879Z,987.63
2023-03-22T08:08:34.844Z,987.58
2023-03-22T08:09:34.820Z,987.55
2023-03-22T08:10:34.944Z,987.57
2023-03-22T08:11:34.809Z,987.50
2023-03-22T08:12:34.825Z,987.53
2023-03-22T08:13:34.782Z,987.55
2023-03-22T08:14:36.825Z,987.59
2023-03-22T08:15:35.784Z,987.59
2023-03-22T08:16:34.790Z,987.66
2023-03-22T08:17:34.762Z,987.64
2023-03-22T08:18:34.738Z,987.68
2023-03-22T08:19:34.722Z,987.65
2023-03-22T08:20:34.717Z,987.62
2023-03-22T08:21:34.710Z,987.67
2023-03-22T08:22:34.728Z,987.72
2023-03-22T08:23:41.796Z,987.68
2023-03-22T08:24:36.681Z,987.65
2023-03-22T08:25:34.669Z,987.69
2023-03-22T08:26:34.658Z,987.62
2023-03-22T08:27:34.691Z,987.64
2023-03-22T08:28:34.643Z,987.56
2023-03-22T08:29:34.641Z,987.57
2023-03-22T08:30:34.621Z,987.53
2023-03-22T08:31:34.633Z,987.49
2023-03-22T08:32:34.617Z,987.60
2023-03-22T08:33:34.596Z,987.54
2023-03-22T08:34:34.622Z,987.65
2023-03-22T08:35:34.574Z,987.59
2023-03-22T08:36:34.553Z,987.55
2023-03-22T08:37:34.566Z,987.61
2023-03-22T08:38:34.539Z,987.56
2023-03-22T08:39:34.540Z,987.57
2023-03-22T08:40:34.594Z,987.61
2023-03-22T08:41:34.513Z,987.55
2023-03-22T08:42:34.535Z,987.55
2023-03-22T08:43:34.488Z,987.59
2023-03-22T08:44:34.481Z,987.51
2023-03-22T08:45:34.470Z,987.46
2023-03-22T08:46:34.537Z,987.49
2023-03-22T08:47:34.470Z,987.48
2023-03-22T08:48:34.437Z,987.50
2023-03-22T08:49:34.454Z,987.58
2023-03-22T08:50:34.455Z,987.56
2023-03-22T08:51:34.424Z,987.49
2023-03-22T08:52:34.434Z,987.53
2023-03-22T08:53:34.419Z,987.63
2023-03-22T08:54:35.017Z,987.55
2023-03-22T08:55:34.368Z,987.49
2023-03-22T08:56:34.367Z,987.41
2023-03-22T08:57:34.692Z,987.43
2023-03-22T08:58:35.340Z,987.47
2023-03-22T08:59:34.357Z,987.43
2023-03-22T09:00:47.780Z,987.46
2023-03-22T09:01:36.431Z,987.36
2023-03-22T09:02:34.349Z,987.41
2023-03-22T09:03:34.291Z,987.40
2023-03-22T09:04:34.311Z,987.46
2023-03-22T09:05:34.277Z,987.44
2023-03-22T09:06:34.265Z,987.39
2023-03-22T09:07:34.273Z,987.36
2023-03-22T09:08:34.234Z,987.39
2023-03-22T09:09:35.236Z,987.37
2023-03-22T09:10:34.229Z,987.37
2023-03-22T09:11:34.214Z,987.29
2023-03-22T09:12:34.229Z,987.26
2023-03-22T09:13:34.198Z,987.21
2023-03-22T09:14:34.191Z,987.20
2023-03-22T09:15:34.201Z,987.23
2023-03-22T09:16:34.935Z,987.25
2023-03-22T09:17:34.152Z,987.22
2023-03-22T09:18:34.174Z,987.17
2023-03-22T09:19:35.294Z,987.12
2023-03-22T09:20:34.156Z,987.19
2023-03-22T09:21:34.145Z,987.12
2023-03-22T09:22:34.111Z,987.12
2023-03-22T09:23:34.110Z,987.09
2023-03-22T09:24:34.078Z,987.14
2023-03-22T09:25:34.084Z,987.10
2023-03-22T09:26:34.072Z,987.15
2023-03-22T09:27:34.059Z,987.05
2023-03-22T09:28:34.074Z,987.01
2023-03-22T09:29:34.033Z,987.00
2023-03-22T09:30:34.056Z,986.97
2023-03-22T09:31:34.100Z,986.98
2023-03-22T09:32:34.749Z,987.02
2023-03-22T09:33:33.992Z,986.90
2023-03-22T09:34:33.986Z,986.90
2023-03-22T09:35:33.998Z,986.91
2023-03-22T09:36:33.960Z,986.83
2023-03-22T09:37:33.970Z,986.83
2023-03-22T09:38:34.014Z,986.92
2023-03-22T09:39:33.922Z,986.91
2023-03-22T09:40:33.933Z,986.91
2023-03-22T09:41:33.916Z,986.98
2023-03-22T09:42:33.945Z,986.92
2023-03-22T09:43:33.891Z,986.94
2023-03-22T09:44:33.883Z,986.94
2023-03-22T09:45:33.874Z,986.78
2023-03-22T09:46:33.929Z,986.88
2023-03-22T09:47:44.476Z,986.81
2023-03-22T09:48:35.855Z,986.81
2023-03-22T09:49:46.943Z,986.75
2023-03-22T09:50:35.828Z,986.76
2023-03-22T09:51:33.815Z,986.76
2023-03-22T09:52:33.860Z,986.82
2023-03-22T09:53:33.802Z,986.77
2023-03-22T09:54:33.797Z,986.75
2023-03-22T09:55:33.788Z,986.73
2023-03-22T09:56:33.762Z,986.74
2023-03-22T09:57:33.761Z,986.65
2023-03-22T09:58:33.769Z,986.67
2023-03-22T09:59:33.745Z,986.75
2023-03-22T10:00:33.867Z,986.75
2023-03-22T10:01:34.051Z,986.65
2023-03-22T10:02:33.759Z,986.60
2023-03-22T10:03:33.775Z,986.56
2023-03-22T10:04:33.737Z,986.57
2023-03-22T10:05:33.709Z,986.56
2023-03-22T10:06:33.671Z,986.51
2023-03-22T10:07:46.703Z,986.56
2023-03-22T10:08:33.648Z,986.44
2023-03-22T10:09:33.634Z,986.47
2023-03-22T10:10:33.644Z,986.41
2023-03-22T10:11:33.636Z,986.45
2023-03-22T10:12:33.615Z,986.36
2023-03-22T10:13:33.648Z,986.39
2023-03-22T10:14:33.585Z,986.34
2023-03-22T10:15:33.574Z,986.36
2023-03-22T10:16:33.600Z,986.38
2023-03-22T10:17:33.559Z,986.42
2023-03-22T10:18:33.569Z,986.36
2023-03-22T10:19:33.534Z,986.37
2023-03-22T10:20:34.560Z,986.29
2023-03-22T10:21:33.528Z,986.23
2023-03-22T10:22:33.519Z,986.34
2023-03-22T10:23:33.556Z,986.34
2023-03-22T10:24:33.496Z,986.32
2023-03-22T10:25:33.483Z,986.43
2023-03-22T10:26:33.492Z,986.25
2023-03-22T10:27:33.457Z,986.36
2023-03-22T10:28:33.465Z,986.43
2023-03-22T10:29:33.447Z,986.42
2023-03-22T10:30:33.440Z,986.42
2023-03-22T10:31:33.488Z,986.40
2023-03-22T10:32:33.424Z,986.31
2023-03-22T10:33:33.477Z,986.30
2023-03-22T10:34:33.391Z,986.40
2023-03-22T10:35:33.425Z,986.30
2023-03-22T10:36:33.372Z,986.33
2023-03-22T10:37:33.375Z,986.35
2023-03-22T10:38:33.441Z,986.35
2023-03-22T10:39:33.346Z,986.39
2023-03-22T10:40:33.336Z,986.33
2023-03-22T10:41:33.347Z,986.34
2023-03-22T10:42:33.317Z,986.37
2023-03-22T10:43:33.299Z,986.43
2023-03-22T10:44:33.323Z,986.32
2023-03-22T10:45:33.280Z,986.41
2023-03-22T10:46:33.298Z,986.41
2023-03-22T10:47:33.261Z,986.45
2023-03-22T10:48:33.495Z,986.41
2023-03-22T10:49:33.307Z,986.52
2023-03-22T10:50:33.239Z,986.50
2023-03-22T10:51:33.256Z,986.48
2023-03-22T10:52:33.211Z,986.47
2023-03-22T10:53:33.217Z,986.54
2023-03-22T10:54:33.190Z,986.65
2023-03-22T10:55:33.223Z,986.73
2023-03-22T10:56:33.180Z,986.60
2023-03-22T10:57:33.176Z,986.55
2023-03-22T10:58:33.181Z,986.61
2023-03-22T10:59:33.144Z,986.59
2023-03-22T11:00:33.183Z,986.52
2023-03-22T11:01:33.279Z,986.52
2023-03-22T11:02:33.222Z,986.55
2023-03-22T11:03:33.101Z,986.50
2023-03-22T11:04:33.097Z,986.63
2023-03-22T11:05:33.091Z,986.53
2023-03-22T11:06:33.085Z,986.52
2023-03-22T11:07:33.068Z,986.52
2023-03-22T11:08:33.078Z,986.52
2023-03-22T11:09:33.050Z,986.47
2023-03-22T11:10:33.163Z,986.50
2023-03-22T11:11:33.051Z,986.42
2023-03-22T11:12:33.027Z,986.41
2023-03-22T11:13:33.029Z,986.41
2023-03-22T11:14:33.005Z,986.44
2023-03-22T11:15:32.993Z,986.42
2023-03-22T11:16:33.030Z,986.40
2023-03-22T11:17:32.971Z,986.41
2023-03-22T11:18:32.983Z,986.37
2023-03-22T11:19:32.948Z,986.30
2023-03-22T11:20:33.015Z,986.24
2023-03-22T11:21:32.963Z,986.34
2023-03-22T11:22:32.915Z,986.38
2023-03-22T11:23:32.941Z,986.44
2023-03-22T11:24:32.937Z,986.28
2023-03-22T11:25:32.897Z,986.39
2023-03-22T11:26:33.267Z,986.31
2023-03-22T11:27:32.913Z,986.31
2023-03-22T11:28:32.878Z,986.35
2023-03-22T11:29:32.848Z,986.27
2023-03-22T11:30:32.839Z,986.24
2023-03-22T11:31:32.849Z,986.26
2023-03-22T11:32:32.886Z,986.20
2023-03-22T11:33:32.833Z,986.20
2023-03-22T11:34:32.845Z,986.19
2023-03-22T11:35:32.822Z,986.24
2023-03-22T11:36:32.790Z,986.25
2023-03-22T11:37:32.782Z,986.22
2023-03-22T11:38:32.782Z,986.21
2023-03-22T11:39:32.748Z,986.08
2023-03-22T11:40:32.765Z,986.13
2023-03-22T11:41:32.737Z,986.04
2023-03-22T11:42:32.736Z,986.15
2023-03-22T11:43:32.807Z,986.11
2023-03-22T11:44:32.712Z,986.05
2023-03-22T11:45:32.696Z,986.09
2023-03-22T11:46:33.708Z,986.07
2023-03-22T11:47:33.684Z,986.11
2023-03-22T11:48:32.851Z,986.08
2023-03-22T11:49:32.675Z,986.06
2023-03-22T11:50:32.771Z,986.05
2023-03-22T11:51:32.649Z,986.10
2023-03-22T11:52:32.661Z,986.00
2023-03-22T11:53:32.634Z,986.03
2023-03-22T11:54:32.611Z,986.07
2023-03-22T11:55:32.615Z,986.03
2023-03-22T11:56:32.596Z,985.94
2023-03-22T11:57:32.579Z,985.97
2023-03-22T11:58:32.585Z,985.93
2023-03-22T11:59:32.562Z,985.92
2023-03-22T12:00:32.552Z,985.92
2023-03-22T12:01:32.548Z,985.86
2023-03-22T12:02:32.648Z,985.91
2023-03-22T12:03:32.734Z,985.85
2023-03-22T12:04:32.579Z,985.87
2023-03-22T12:05:32.498Z,985.82
2023-03-22T12:06:32.543Z,985.76
2023-03-22T12:07:32.478Z,985.82
2023-03-22T12:08:32.511Z,985.83
2023-03-22T12:09:32.462Z,985.85
2023-03-22T12:10:32.449Z,985.77
2023-03-22T12:11:32.443Z,985.79
2023-03-22T12:12:32.430Z,985.73
2023-03-22T12:13:32.435Z,985.69
2023-03-22T12:14:32.417Z,985.72
2023-03-22T12:15:32.397Z,985.71
2023-03-22T12:16:32.435Z,985.72
2023-03-22T12:17:32.432Z,985.82
2023-03-22T12:18:32.423Z,985.79
2023-03-22T12:19:32.360Z,985.83
2023-03-22T12:20:32.366Z,985.90
2023-03-22T12:21:32.377Z,985.95
2023-03-22T12:22:32.343Z,985.85
2023-03-22T12:23:32.347Z,985.77
2023-03-22T12:24:32.305Z,985.91
2023-03-22T12:25:32.312Z,985.91
2023-03-22T12:26:32.287Z,985.92
2023-03-22T12:27:32.280Z,985.94
2023-03-22T12:28:32.292Z,985.94